createdAt,value
2023-05-17T00:00:00.128Z,14.07
2023-05-17T00:02:29.585Z,15.00
2023-05-17T00:05:01.520Z,16.80
2023-05-17T00:07:31.099Z,17.00
2023-05-17T00:10:00.791Z,16.93
2023-05-17T00:12:30.545Z,19.63
2023-05-17T00:15:00.144Z,15.80
2023-05-17T00:17:29.961Z,17.57
2023-05-17T00:20:02.982Z,16.03
2023-05-17T00:22:32.340Z,14.70
2023-05-17T00:25:02.011Z,20.30
2023-05-17T00:27:31.695Z,19.63
2023-05-17T00:30:01.224Z,13.57
2023-05-17T00:32:33.168Z,12.20
2023-05-17T00:35:04.007Z,17.17
2023-05-17T00:37:32.941Z,18.57
2023-05-17T00:40:02.630Z,18.67
2023-05-17T00:42:32.417Z,16.13
2023-05-17T00:45:01.556Z,10.77
2023-05-17T00:47:31.216Z,13.23
2023-05-17T00:50:03.022Z,16.67
2023-05-17T00:52:45.688Z,18.53
2023-05-17T00:55:15.122Z,15.23
2023-05-17T00:57:46.097Z,19.83
2023-05-17T01:00:18.081Z,18.77
2023-05-17T01:02:49.640Z,17.60
2023-05-17T01:05:19.125Z,18.37
2023-05-17T01:07:53.100Z,18.77
2023-05-17T01:10:23.814Z,16.87
2023-05-17T01:13:09.705Z,13.27
2023-05-17T01:15:45.711Z,17.40
2023-05-17T01:18:23.303Z,17.73
2023-05-17T01:21:01.124Z,16.93
2023-05-17T01:23:50.795Z,20.23
2023-05-17T01:26:36.485Z,19.23
2023-05-17T01:29:10.629Z,18.13
2023-05-17T01:31:42.521Z,19.13
2023-05-17T01:34:22.201Z,17.17
2023-05-17T01:36:53.550Z,16.17
2023-05-17T01:39:23.966Z,17.07
2023-05-17T01:42:10.861Z,21.80
2023-05-17T01:44:52.816Z,18.73
2023-05-17T01:47:33.105Z,13.97
2023-05-17T01:50:03.815Z,15.27
2023-05-17T01:52:40.532Z,16.40
2023-05-17T01:55:22.874Z,21.03
2023-05-17T01:57:59.683Z,18.10
2023-05-17T02:00:32.420Z,23.63
2023-05-17T02:03:01.933Z,15.20
2023-05-17T02:05:32.431Z,15.70
2023-05-17T02:08:01.813Z,18.87
2023-05-17T02:10:36.123Z,21.03
2023-05-17T02:13:07.670Z,16.90
2023-05-17T02:15:37.478Z,17.30
2023-05-17T02:18:07.107Z,19.23
2023-05-17T02:20:38.278Z,13.33
2023-05-17T02:23:08.470Z,17.20
2023-05-17T02:25:38.596Z,20.17
2023-05-17T02:28:11.712Z,15.47
2023-05-17T02:30:43.358Z,11.80
2023-05-17T02:33:21.852Z,16.13
2023-05-17T02:35:53.801Z,14.13
2023-05-17T02:38:28.184Z,14.53
2023-05-17T02:40:58.907Z,16.17
2023-05-17T02:43:33.671Z,13.70
2023-05-17T02:46:03.153Z,14.40
2023-05-17T02:48:35.320Z,13.10
2023-05-17T02:51:05.350Z,13.30
2023-05-17T02:53:35.026Z,11.17
2023-05-17T02:56:04.565Z,10.40
2023-05-17T02:58:36.954Z,12.40
2023-05-17T03:01:13.128Z,15.60
2023-05-17T03:03:46.192Z,12.30
2023-05-17T03:06:17.508Z,16.43
2023-05-17T03:08:47.716Z,9.43
2023-05-17T03:11:20.153Z,11.83
2023-05-17T03:13:52.790Z,13.23
2023-05-17T03:16:30.132Z,13.70
2023-05-17T03:19:00.688Z,13.67
2023-05-17T03:21:31.415Z,9.90
2023-05-17T03:24:00.787Z,16.33
2023-05-17T03:26:32.611Z,8.30
2023-05-17T03:29:03.840Z,9.37
2023-05-17T03:31:33.670Z,7.47
2023-05-17T03:34:04.234Z,5.60
2023-05-17T03:36:36.115Z,12.00
2023-05-17T03:39:05.645Z,10.13
2023-05-17T03:41:36.092Z,8.97
2023-05-17T03:44:08.100Z,10.73
2023-05-17T03:46:43.082Z,8.43
2023-05-17T03:49:13.494Z,8.40
2023-05-17T03:51:44.271Z,9.67
2023-05-17T03:54:13.303Z,7.63
2023-05-17T03:56:47.472Z,7.57
2023-05-17T03:59:18.549Z,8.53
2023-05-17T04:01:48.063Z,7.83
2023-05-17T04:04:16.855Z,9.93
2023-05-17T04:06:45.992Z,9.50
2023-05-17T04:09:15.881Z,12.10
2023-05-17T04:11:45.579Z,10.43
2023-05-17T04:14:18.378Z,9.27
2023-05-17T04:16:52.147Z,9.07
2023-05-17T04:19:22.474Z,8.60
2023-05-17T04:22:07.531Z,10.03
2023-05-17T04:24:38.098Z,8.90
2023-05-17T04:27:15.006Z,8.67
2023-05-17T04:29:49.478Z,8.33
2023-05-17T04:32:25.667Z,7.10
2023-05-17T04:34:54.717Z,10.07
2023-05-17T04:37:25.198Z,6.27
2023-05-17T04:39:55.621Z,11.60
2023-05-17T04:42:29.496Z,11.83
2023-05-17T04:45:14.086Z,8.83
2023-05-17T04:47:45.941Z,7.63
2023-05-17T04:50:24.080Z,10.73
2023-05-17T04:52:56.053Z,9.57
2023-05-17T04:55:27.540Z,6.97
2023-05-17T04:58:01.961Z,12.60
2023-05-17T05:00:32.979Z,7.80
2023-05-17T05:03:05.354Z,9.27
2023-05-17T05:05:34.494Z,10.33
2023-05-17T05:08:05.468Z,7.33
2023-05-17T05:10:35.546Z,7.63
2023-05-17T05:13:07.985Z,7.00
2023-05-17T05:15:39.535Z,9.20
2023-05-17T05:18:12.421Z,9.60
2023-05-17T05:20:44.028Z,6.13
2023-05-17T05:23:13.161Z,6.27
2023-05-17T05:25:44.869Z,7.70
2023-05-17T05:28:19.757Z,6.90
2023-05-17T05:30:51.103Z,10.13
2023-05-17T05:33:20.458Z,6.73
2023-05-17T05:35:59.635Z,8.90
2023-05-17T05:38:31.605Z,7.50
2023-05-17T05:41:02.093Z,7.40
2023-05-17T05:43:32.505Z,7.83
2023-05-17T05:46:03.596Z,10.93
2023-05-17T05:48:39.673Z,10.47
2023-05-17T05:51:08.929Z,10.43
2023-05-17T05:53:49.172Z,8.97
2023-05-17T05:56:22.011Z,8.90
2023-05-17T05:58:51.828Z,11.27
2023-05-17T06:01:25.539Z,11.80
2023-05-17T06:03:55.146Z,12.23
2023-05-17T06:06:25.181Z,5.93
2023-05-17T06:08:57.007Z,9.93
2023-05-17T06:11:33.833Z,10.27
2023-05-17T06:14:03.622Z,10.77
2023-05-17T06:16:36.255Z,7.63
2023-05-17T06:19:14.707Z,9.27
2023-05-17T06:21:44.597Z,10.80
2023-05-17T06:24:13.631Z,10.33
2023-05-17T06:26:44.643Z,10.30
2023-05-17T06:29:14.156Z,6.70
2023-05-17T06:31:46.545Z,10.70
2023-05-17T06:34:24.235Z,10.20
2023-05-17T06:36:54.047Z,11.33
2023-05-17T06:39:25.567Z,13.30
2023-05-17T06:41:57.180Z,15.20
2023-05-17T06:44:28.218Z,8.63
2023-05-17T06:47:02.285Z,9.07
2023-05-17T06:49:31.867Z,12.20
2023-05-17T06:52:04.175Z,12.53
2023-05-17T06:54:34.141Z,10.83
2023-05-17T06:57:06.154Z,15.90
2023-05-17T06:59:35.579Z,10.73
2023-05-17T07:02:12.155Z,8.93
2023-05-17T07:04:42.207Z,8.93
2023-05-17T07:07:12.900Z,10.93
2023-05-17T07:09:42.976Z,14.77
2023-05-17T07:12:15.468Z,10.63
2023-05-17T07:14:45.530Z,8.47
2023-05-17T07:17:20.157Z,10.17
2023-05-17T07:19:52.282Z,7.20
2023-05-17T07:22:24.062Z,7.93
2023-05-17T07:24:57.332Z,10.30
2023-05-17T07:27:31.162Z,9.33
2023-05-17T07:30:02.832Z,8.93
2023-05-17T07:32:33.682Z,11.43
2023-05-17T07:35:04.146Z,10.13
2023-05-17T07:37:33.537Z,10.17
2023-05-17T07:40:05.179Z,8.90
2023-05-17T07:42:36.201Z,8.87
2023-05-17T07:45:06.727Z,7.20
2023-05-17T07:47:38.308Z,7.33
2023-05-17T07:50:10.266Z,7.43
2023-05-17T07:52:39.852Z,7.77
2023-05-17T07:55:13.742Z,8.57
2023-05-17T07:57:47.619Z,10.90
2023-05-17T08:00:20.363Z,8.37
2023-05-17T08:02:52.375Z,13.07
2023-05-17T08:05:22.411Z,10.33
2023-05-17T08:08:10.123Z,10.83
2023-05-17T08:10:42.310Z,8.37
2023-05-17T08:13:12.580Z,7.43
2023-05-17T08:15:41.934Z,8.13
2023-05-17T08:18:13.817Z,9.47
2023-05-17T08:20:44.663Z,8.13
2023-05-17T08:23:14.140Z,10.33
2023-05-17T08:25:44.195Z,8.30
2023-05-17T08:28:13.662Z,9.50
2023-05-17T08:30:43.510Z,10.40
2023-05-17T08:33:15.102Z,10.67
2023-05-17T08:35:51.245Z,9.93
2023-05-17T08:38:22.294Z,7.63
2023-05-17T08:41:02.679Z,8.87
2023-05-17T08:43:34.181Z,9.57
2023-05-17T08:46:04.907Z,9.90
2023-05-17T08:48:42.350Z,9.87
2023-05-17T08:51:12.524Z,10.53
2023-05-17T08:53:47.557Z,7.33
2023-05-17T08:56:20.723Z,8.07
2023-05-17T08:58:57.852Z,11.20
2023-05-17T09:01:34.761Z,7.03
2023-05-17T09:04:13.995Z,5.17
2023-05-17T09:06:46.787Z,10.63
2023-05-17T09:09:19.268Z,6.70
2023-05-17T09:11:49.680Z,5.47
2023-05-17T09:14:19.959Z,7.27
2023-05-17T09:16:51.050Z,5.13
2023-05-17T09:19:25.407Z,8.80
2023-05-17T09:21:58.964Z,6.80
2023-05-17T09:24:32.491Z,5.23
2023-05-17T09:27:12.946Z,6.93
2023-05-17T09:29:42.964Z,8.70
2023-05-17T09:32:17.276Z,8.40
2023-05-17T09:34:52.382Z,7.33
2023-05-17T09:37:31.738Z,6.77
2023-05-17T09:40:07.780Z,7.30
2023-05-17T09:42:41.754Z,7.83
2023-05-17T09:45:14.795Z,8.70
2023-05-17T09:47:44.517Z,6.33
2023-05-17T09:50:25.352Z,6.50
2023-05-17T09:52:57.205Z,10.40
2023-05-17T09:55:29.867Z,9.50
2023-05-17T09:58:06.718Z,6.00
2023-05-17T10:00:47.209Z,10.03
2023-05-17T10:03:19.520Z,8.10
2023-05-17T10:05:54.922Z,9.40
2023-05-17T10:08:27.581Z,8.03
2023-05-17T10:11:00.899Z,8.07
2023-05-17T10:13:36.743Z,8.23
2023-05-17T10:16:09.425Z,6.20
2023-05-17T10:18:41.829Z,4.53
2023-05-17T10:21:14.189Z,8.17
2023-05-17T10:23:47.384Z,4.70
2023-05-17T10:26:29.392Z,7.90
2023-05-17T10:29:18.591Z,5.93
2023-05-17T10:31:50.238Z,6.80
2023-05-17T10:34:23.772Z,4.23
2023-05-17T10:37:11.825Z,6.03
2023-05-17T10:39:47.833Z,7.37
2023-05-17T10:42:22.505Z,5.23
2023-05-17T10:44:56.530Z,6.80
2023-05-17T10:47:35.862Z,5.17
2023-05-17T10:50:15.291Z,6.30
2023-05-17T10:52:57.945Z,6.37
2023-05-17T10:55:39.620Z,6.07
2023-05-17T10:58:30.382Z,5.47
2023-05-17T11:01:08.395Z,5.53
2023-05-17T11:03:40.090Z,6.93
2023-05-17T11:06:24.502Z,6.20
2023-05-17T11:09:18.394Z,4.63
2023-05-17T11:12:09.389Z,5.17
2023-05-17T11:14:54.370Z,6.57
2023-05-17T11:17:28.534Z,5.93
2023-05-17T11:20:06.529Z,6.10
2023-05-17T11:22:42.435Z,7.87
2023-05-17T11:25:18.693Z,5.80
2023-05-17T11:27:54.065Z,5.70
2023-05-17T11:30:28.938Z,5.40
2023-05-17T11:33:05.681Z,4.13
2023-05-17T11:35:40.649Z,5.90
2023-05-17T11:38:22.372Z,4.17
2023-05-17T11:40:56.900Z,8.80
2023-05-17T11:43:31.331Z,7.47
2023-05-17T11:46:05.946Z,6.97
2023-05-17T11:48:37.099Z,5.53
2023-05-17T11:51:09.918Z,3.93
2023-05-17T11:53:42.038Z,5.13
2023-05-17T11:56:13.497Z,6.00
2023-05-17T11:58:46.483Z,7.57
2023-05-17T12:01:16.600Z,5.93
2023-05-17T12:03:50.563Z,7.17
2023-05-17T12:06:21.126Z,6.17
2023-05-17T12:08:56.690Z,6.20
2023-05-17T12:11:29.853Z,6.03
2023-05-17T12:14:00.217Z,6.70
2023-05-17T12:16:33.227Z,7.27
2023-05-17T12:19:09.793Z,10.23
2023-05-17T12:21:41.172Z,7.43
2023-05-17T12:24:10.830Z,6.00
2023-05-17T12:26:45.770Z,6.77
2023-05-17T12:29:18.471Z,5.87
2023-05-17T12:31:53.668Z,6.57
2023-05-17T12:34:23.995Z,6.53
2023-05-17T12:36:55.315Z,6.40
2023-05-17T12:39:25.930Z,6.40
2023-05-17T12:41:57.429Z,9.23
2023-05-17T12:44:32.136Z,9.13
2023-05-17T12:47:05.320Z,9.67
2023-05-17T12:49:41.375Z,6.35
2023-05-17T12:52:16.448Z,11.70
2023-05-17T12:54:46.955Z,7.90
2023-05-17T12:57:22.487Z,7.13
2023-05-17T12:59:56.143Z,10.30
2023-05-17T13:02:25.679Z,5.63
2023-05-17T13:04:56.539Z,5.70
2023-05-17T13:07:27.799Z,7.18
2023-05-17T13:09:58.711Z,7.25
2023-05-17T13:12:30.188Z,7.20
2023-05-17T13:15:00.374Z,6.50
2023-05-17T13:17:40.801Z,5.97
2023-05-17T13:20:11.622Z,4.43
2023-05-17T13:22:45.987Z,4.95
2023-05-17T13:25:17.992Z,6.30
2023-05-17T13:27:50.060Z,4.47
2023-05-17T13:30:19.376Z,6.25
2023-05-17T13:32:49.347Z,9.18
2023-05-17T13:35:18.980Z,5.93
2023-05-17T13:37:49.108Z,5.57
2023-05-17T13:40:20.284Z,6.45
2023-05-17T13:42:51.282Z,6.05
2023-05-17T13:45:20.361Z,6.75
2023-05-17T13:47:49.655Z,5.47
2023-05-17T13:50:22.376Z,6.95
2023-05-17T13:52:51.903Z,5.95
2023-05-17T13:55:23.162Z,5.60
2023-05-17T13:57:54.648Z,9.87
2023-05-17T14:00:27.197Z,4.63
2023-05-17T14:02:59.131Z,4.25
2023-05-17T14:05:29.274Z,5.75
2023-05-17T14:07:59.705Z,6.05
2023-05-17T14:10:32.455Z,4.78
2023-05-17T14:13:03.480Z,5.65
2023-05-17T14:15:33.106Z,4.72
2023-05-17T14:18:02.232Z,4.57
2023-05-17T14:20:36.331Z,4.30
2023-05-17T14:23:06.147Z,5.15
2023-05-17T14:25:36.670Z,4.70
2023-05-17T14:28:07.406Z,3.95
2023-05-17T14:30:37.386Z,4.43
2023-05-17T14:33:09.387Z,5.97
2023-05-17T14:35:40.836Z,4.90
2023-05-17T14:38:11.201Z,4.13
2023-05-17T14:40:40.248Z,3.70
2023-05-17T14:43:12.123Z,5.20
2023-05-17T14:45:43.649Z,3.70
2023-05-17T14:48:13.435Z,3.17
2023-05-17T14:50:43.133Z,5.03
2023-05-17T14:53:13.249Z,2.70
2023-05-17T14:55:42.691Z,4.93
2023-05-17T14:58:13.655Z,4.05
2023-05-17T15:00:48.572Z,5.22
2023-05-17T15:03:22.278Z,7.07
2023-05-17T15:05:57.294Z,6.72
2023-05-17T15:08:29.744Z,5.13
2023-05-17T15:11:00.327Z,5.57
2023-05-17T15:13:32.721Z,7.45
2023-05-17T15:16:05.594Z,6.97
2023-05-17T15:18:37.219Z,6.93
2023-05-17T15:21:08.228Z,5.67
2023-05-17T15:23:38.668Z,4.97
2023-05-17T15:26:10.704Z,6.50
2023-05-17T15:28:43.920Z,4.30
2023-05-17T15:31:17.692Z,5.13
2023-05-17T15:33:48.738Z,6.43
2023-05-17T15:36:17.898Z,5.93
2023-05-17T15:38:48.062Z,6.10
2023-05-17T15:41:19.830Z,4.00
2023-05-17T15:43:56.002Z,6.27
2023-05-17T15:46:33.662Z,5.23
2023-05-17T15:49:02.581Z,5.73
2023-05-17T15:51:32.672Z,4.40
2023-05-17T15:54:02.110Z,3.17
2023-05-17T15:56:32.575Z,6.33
2023-05-17T15:59:03.511Z,4.93
2023-05-17T16:01:38.253Z,6.27
2023-05-17T16:04:08.397Z,4.83
2023-05-17T16:06:38.689Z,5.63
2023-05-17T16:09:08.626Z,6.77
2023-05-17T16:11:38.682Z,5.40
2023-05-17T16:14:10.668Z,4.50
2023-05-17T16:16:40.066Z,5.77
2023-05-17T16:19:09.902Z,5.93
2023-05-17T16:21:39.269Z,4.57
2023-05-17T16:24:09.425Z,4.57
2023-05-17T16:26:40.454Z,6.57
2023-05-17T16:29:13.993Z,7.17
2023-05-17T16:31:44.160Z,3.73
2023-05-17T16:34:13.563Z,7.00
2023-05-17T16:36:47.503Z,6.63
2023-05-17T16:39:27.615Z,6.23
2023-05-17T16:41:58.007Z,5.23
2023-05-17T16:44:29.814Z,7.43
2023-05-17T16:46:59.523Z,6.57
2023-05-17T16:49:30.748Z,5.70
2023-05-17T16:52:00.116Z,4.43
2023-05-17T16:54:38.155Z,3.00
2023-05-17T16:57:09.625Z,4.97
2023-05-17T16:59:41.701Z,4.93
2023-05-17T17:02:12.576Z,3.83
2023-05-17T17:04:42.610Z,6.00
2023-05-17T17:07:20.380Z,6.07
2023-05-17T17:09:50.232Z,5.13
2023-05-17T17:12:24.041Z,3.60
2023-05-17T17:17:42.555Z,3.73
2023-05-17T17:20:14.672Z,4.43
2023-05-17T17:22:46.227Z,4.85
2023-05-17T17:25:17.290Z,4.13
2023-05-17T17:27:50.518Z,3.53
2023-05-17T17:30:31.638Z,5.93
2023-05-17T17:33:02.497Z,4.20
2023-05-17T17:35:32.003Z,4.80
2023-05-17T17:38:03.458Z,5.17
2023-05-17T17:40:34.065Z,3.67
2023-05-17T17:43:03.632Z,5.43
2023-05-17T17:45:34.910Z,5.13
2023-05-17T17:48:04.329Z,5.90
2023-05-17T17:50:44.245Z,7.53
2023-05-17T17:53:13.784Z,5.70
2023-05-17T17:55:42.874Z,3.67
2023-05-17T17:58:12.177Z,5.97
2023-05-17T18:00:44.705Z,5.93
2023-05-17T18:03:14.367Z,6.00
2023-05-17T18:05:45.674Z,5.80
2023-05-17T18:08:15.201Z,7.10
2023-05-17T18:10:45.712Z,5.73
2023-05-17T18:13:16.382Z,6.50
2023-05-17T18:15:47.730Z,6.57
2023-05-17T18:18:18.508Z,5.73
2023-05-17T18:20:47.416Z,6.73
2023-05-17T18:23:18.652Z,5.30
2023-05-17T18:25:53.217Z,5.57
2023-05-17T18:28:37.550Z,5.73
2023-05-17T18:31:14.442Z,6.57
2023-05-17T18:33:44.026Z,5.37
2023-05-17T18:36:13.680Z,5.83
2023-05-17T18:38:43.430Z,6.87
2023-05-17T18:41:12.481Z,6.33
2023-05-17T18:43:41.746Z,6.23
2023-05-17T18:46:13.767Z,6.90
2023-05-17T18:48:43.688Z,6.30
2023-05-17T18:51:15.873Z,5.40
2023-05-17T18:53:45.368Z,4.97
2023-05-17T18:56:16.613Z,6.67
2023-05-17T18:58:46.391Z,6.40
2023-05-17T19:01:22.372Z,5.50
2023-05-17T19:03:55.399Z,5.87
2023-05-17T19:06:28.019Z,7.70
2023-05-17T19:09:01.197Z,5.50
2023-05-17T19:11:32.548Z,4.27
2023-05-17T19:14:05.222Z,7.37
2023-05-17T19:16:36.672Z,6.80
2023-05-17T19:19:07.292Z,6.00
2023-05-17T19:21:36.466Z,5.53
2023-05-17T19:24:07.781Z,5.03
2023-05-17T19:26:37.920Z,7.63
2023-05-17T19:29:08.009Z,7.53
2023-05-17T19:31:41.557Z,7.67
2023-05-17T19:34:12.662Z,7.20
2023-05-17T19:36:43.787Z,8.20
2023-05-17T19:39:13.594Z,5.33
2023-05-17T19:41:42.239Z,6.83
2023-05-17T19:44:11.773Z,5.03
2023-05-17T19:46:43.286Z,6.83
2023-05-17T19:49:13.448Z,9.17
2023-05-17T19:51:43.694Z,5.87
2023-05-17T19:54:12.395Z,7.60
2023-05-17T19:56:42.804Z,7.20
2023-05-17T19:59:12.303Z,6.40
2023-05-17T20:01:42.637Z,6.57
2023-05-17T20:04:11.941Z,8.00
2023-05-17T20:06:42.186Z,6.77
2023-05-17T20:09:12.737Z,5.47
2023-05-17T20:11:41.616Z,7.00
2023-05-17T20:14:12.672Z,7.63
2023-05-17T20:16:44.484Z,9.50
2023-05-17T20:19:14.545Z,9.87
2023-05-17T20:21:43.464Z,9.50
2023-05-17T20:26:56.726Z,7.93
2023-05-17T20:29:33.842Z,8.53
2023-05-17T20:32:05.010Z,6.00
2023-05-17T20:34:35.066Z,12.10
2023-05-17T20:37:04.611Z,7.83
2023-05-17T20:39:35.502Z,7.60
2023-05-17T20:42:04.721Z,11.90
2023-05-17T20:44:34.497Z,9.03
2023-05-17T20:47:10.731Z,8.47
2023-05-17T20:49:40.382Z,8.37
2023-05-17T20:52:10.220Z,6.00
2023-05-17T20:54:40.822Z,4.23
2023-05-17T20:57:10.465Z,7.63
2023-05-17T20:59:40.080Z,11.43
2023-05-17T21:02:10.933Z,9.30
2023-05-17T21:04:39.988Z,8.27
2023-05-17T21:07:10.729Z,6.13
2023-05-17T21:09:41.359Z,8.20
2023-05-17T21:12:13.593Z,10.93
2023-05-17T21:14:42.817Z,10.03
2023-05-17T21:17:14.240Z,9.27
2023-05-17T21:19:42.904Z,7.50
2023-05-17T21:22:11.564Z,10.90
2023-05-17T21:24:41.058Z,9.43
2023-05-17T21:27:11.264Z,7.80
2023-05-17T21:29:40.303Z,7.33
2023-05-17T21:32:09.822Z,11.43
2023-05-17T21:34:51.069Z,13.13
2023-05-17T21:37:33.114Z,12.50
2023-05-17T21:40:03.302Z,8.67
2023-05-17T21:42:32.236Z,6.27
2023-05-17T21:45:01.092Z,12.93
2023-05-17T21:47:31.797Z,10.30
2023-05-17T21:50:03.035Z,7.40
2023-05-17T21:52:32.797Z,10.73
2023-05-17T21:55:02.105Z,5.63
2023-05-17T21:57:36.112Z,7.63
2023-05-17T22:00:09.373Z,7.80
2023-05-17T22:02:39.965Z,10.77
2023-05-17T22:05:20.232Z,9.60
2023-05-17T22:07:52.391Z,8.53
2023-05-17T22:10:24.647Z,9.67
2023-05-17T22:12:54.760Z,8.63
2023-05-17T22:15:29.090Z,7.00
2023-05-17T22:17:59.243Z,6.97
2023-05-17T22:20:31.193Z,9.90
2023-05-17T22:23:01.509Z,7.03
2023-05-17T22:25:30.941Z,7.30
2023-05-17T22:28:00.490Z,8.70
2023-05-17T22:30:34.571Z,10.10
2023-05-17T22:33:04.405Z,5.70
2023-05-17T22:35:36.532Z,10.90
2023-05-17T22:38:06.789Z,7.27
2023-05-17T22:40:37.040Z,5.90
2023-05-17T22:43:08.250Z,5.70
2023-05-17T22:45:45.297Z,7.50
2023-05-17T22:48:16.053Z,7.80
2023-05-17T22:50:48.520Z,8.10
2023-05-17T22:53:21.403Z,7.60
2023-05-17T22:55:51.755Z,4.87
2023-05-17T22:58:25.215Z,7.30
2023-05-17T23:00:54.807Z,8.53
2023-05-17T23:03:25.190Z,7.50
2023-05-17T23:06:03.275Z,9.13
2023-05-17T23:08:32.880Z,6.90
2023-05-17T23:11:05.097Z,8.10
2023-05-17T23:13:37.042Z,9.57
2023-05-17T23:16:08.650Z,21.73
2023-05-17T23:18:41.193Z,13.77
2023-05-17T23:21:12.349Z,8.87
2023-05-17T23:23:42.416Z,6.57
2023-05-17T23:26:11.841Z,9.73
2023-05-17T23:28:44.906Z,9.03
2023-05-17T23:31:16.989Z,6.83
2023-05-17T23:33:46.890Z,7.47
2023-05-17T23:36:22.138Z,7.00
2023-05-17T23:38:52.191Z,7.97
2023-05-17T23:41:25.868Z,5.27
2023-05-17T23:43:57.272Z,7.17
2023-05-17T23:46:27.155Z,8.27
2023-05-17T23:48:58.984Z,9.67
2023-05-17T23:51:33.588Z,8.80
2023-05-17T23:54:02.931Z,7.53
2023-05-17T23:56:32.551Z,5.70
2023-05-17T23:59:02.478Z,6.50
